sensor_id;sensor_type;location;lat;lon;timestamp;P1;durP1;ratioP1;P2;durP2;ratioP2
12861;SDS011;6499;66.348;14.134;2023-01-29T00:01:21;6.00;;;1.50;;
12861;SDS011;6499;66.348;14.134;2023-01-29T00:03:50;10.27;;;1.63;;
12861;SDS011;6499;66.348;14.134;2023-01-29T00:06:17;4.80;;;1.60;;
12861;SDS011;6499;66.348;14.134;2023-01-29T00:08:43;6.50;;;1.90;;
12861;SDS011;6499;66.348;14.134;2023-01-29T00:11:10;4.47;;;1.53;;
12861;SDS011;6499;66.348;14.134;2023-01-29T00:13:38;4.30;;;1.30;;
12861;SDS011;6499;66.348;14.134;2023-01-29T00:16:04;8.33;;;1.60;;
12861;SDS011;6499;66.348;14.134;2023-01-29T00:18:31;4.57;;;1.53;;
12861;SDS011;6499;66.348;14.134;2023-01-29T00:20:59;3.53;;;1.30;;
12861;SDS011;6499;66.348;14.134;2023-01-29T00:23:25;5.40;;;1.60;;
12861;SDS011;6499;66.348;14.134;2023-01-29T00:25:52;4.07;;;1.30;;
12861;SDS011;6499;66.348;14.134;2023-01-29T00:28:18;5.33;;;1.30;;
12861;SDS011;6499;66.348;14.134;2023-01-29T00:30:45;2.90;;;1.27;;
12861;SDS011;6499;66.348;14.134;2023-01-29T00:33:11;4.27;;;1.07;;
12861;SDS011;6499;66.348;14.134;2023-01-29T00:35:38;4.10;;;1.20;;
12861;SDS011;6499;66.348;14.134;2023-01-29T00:38:06;3.37;;;0.90;;
12861;SDS011;6499;66.348;14.134;2023-01-29T00:40:35;2.40;;;0.90;;
12861;SDS011;6499;66.348;14.134;2023-01-29T00:43:22;3.20;;;0.97;;
12861;SDS011;6499;66.348;14.134;2023-01-29T00:46:06;2.30;;;0.60;;
12861;SDS011;6499;66.348;14.134;2023-01-29T00:48:32;1.03;;;0.67;;
12861;SDS011;6499;66.348;14.134;2023-01-29T00:50:59;2.57;;;0.70;;
12861;SDS011;6499;66.348;14.134;2023-01-29T00:53:27;4.47;;;0.97;;
12861;SDS011;6499;66.348;14.134;2023-01-29T00:55:54;2.77;;;0.90;;
12861;SDS011;6499;66.348;14.134;2023-01-29T00:58:20;3.03;;;0.83;;
12861;SDS011;6499;66.348;14.134;2023-01-29T01:00:58;3.37;;;0.70;;
12861;SDS011;6499;66.348;14.134;2023-01-29T01:03:25;2.00;;;0.50;;
12861;SDS011;6499;66.348;14.134;2023-01-29T01:05:51;3.17;;;0.53;;
12861;SDS011;6499;66.348;14.134;2023-01-29T01:08:28;1.50;;;0.60;;
12861;SDS011;6499;66.348;14.134;2023-01-29T01:11:12;1.33;;;0.70;;
12861;SDS011;6499;66.348;14.134;2023-01-29T01:13:39;1.67;;;0.50;;
12861;SDS011;6499;66.348;14.134;2023-01-29T01:16:07;0.60;;;0.50;;
12861;SDS011;6499;66.348;14.134;2023-01-29T01:18:34;2.83;;;0.87;;
12861;SDS011;6499;66.348;14.134;2023-01-29T01:21:02;1.33;;;0.37;;
12861;SDS011;6499;66.348;14.134;2023-01-29T01:23:30;1.83;;;0.50;;
12861;SDS011;6499;66.348;14.134;2023-01-29T01:25:56;0.97;;;0.53;;
12861;SDS011;6499;66.348;14.134;2023-01-29T01:28:23;0.50;;;0.50;;
12861;SDS011;6499;66.348;14.134;2023-01-29T01:30:50;0.80;;;0.50;;
12861;SDS011;6499;66.348;14.134;2023-01-29T01:33:16;1.13;;;0.60;;
12861;SDS011;6499;66.348;14.134;2023-01-29T01:35:42;1.90;;;0.50;;
12861;SDS011;6499;66.348;14.134;2023-01-29T01:38:09;0.60;;;0.50;;
12861;SDS011;6499;66.348;14.134;2023-01-29T01:40:42;1.33;;;0.37;;
12861;SDS011;6499;66.348;14.134;2023-01-29T01:43:09;0.87;;;0.40;;
12861;SDS011;6499;66.348;14.134;2023-01-29T01:45:36;1.90;;;0.50;;
12861;SDS011;6499;66.348;14.134;2023-01-29T01:48:03;0.50;;;0.40;;
12861;SDS011;6499;66.348;14.134;2023-01-29T01:50:31;1.27;;;0.47;;
12861;SDS011;6499;66.348;14.134;2023-01-29T01:53:01;0.40;;;0.40;;
12861;SDS011;6499;66.348;14.134;2023-01-29T01:55:30;1.10;;;0.50;;
12861;SDS011;6499;66.348;14.134;2023-01-29T01:58:00;0.60;;;0.37;;
12861;SDS011;6499;66.348;14.134;2023-01-29T02:00:28;1.10;;;0.57;;
12861;SDS011;6499;66.348;14.134;2023-01-29T02:02:54;0.93;;;0.40;;
12861;SDS011;6499;66.348;14.134;2023-01-29T02:05:38;0.97;;;0.63;;
12861;SDS011;6499;66.348;14.134;2023-01-29T02:08:23;1.73;;;0.60;;
12861;SDS011;6499;66.348;14.134;2023-01-29T02:11:09;1.00;;;0.40;;
12861;SDS011;6499;66.348;14.134;2023-01-29T02:13:37;1.77;;;0.30;;
12861;SDS011;6499;66.348;14.134;2023-01-29T02:16:03;0.50;;;0.40;;
12861;SDS011;6499;66.348;14.134;2023-01-29T02:18:30;1.97;;;0.50;;
12861;SDS011;6499;66.348;14.134;2023-01-29T02:21:06;3.40;;;0.50;;
12861;SDS011;6499;66.348;14.134;2023-01-29T02:23:51;1.40;;;0.50;;
12861;SDS011;6499;66.348;14.134;2023-01-29T02:29:04;0.47;;;0.30;;
12861;SDS011;6499;66.348;14.134;2023-01-29T02:32:14;0.40;;;0.30;;
12861;SDS011;6499;66.348;14.134;2023-01-29T02:34:45;0.30;;;0.20;;
12861;SDS011;6499;66.348;14.134;2023-01-29T02:37:31;0.87;;;0.30;;
12861;SDS011;6499;66.348;14.134;2023-01-29T02:40:02;0.40;;;0.30;;
12861;SDS011;6499;66.348;14.134;2023-01-29T02:42:31;0.20;;;0.20;;
12861;SDS011;6499;66.348;14.134;2023-01-29T02:45:02;0.30;;;0.30;;
12861;SDS011;6499;66.348;14.134;2023-01-29T02:47:33;0.83;;;0.33;;
12861;SDS011;6499;66.348;14.134;2023-01-29T02:50:05;0.37;;;0.30;;
12861;SDS011;6499;66.348;14.134;2023-01-29T02:52:32;0.27;;;0.27;;
12861;SDS011;6499;66.348;14.134;2023-01-29T02:55:02;0.30;;;0.30;;
12861;SDS011;6499;66.348;14.134;2023-01-29T02:57:35;1.07;;;0.30;;
12861;SDS011;6499;66.348;14.134;2023-01-29T03:00:03;0.90;;;0.63;;
12861;SDS011;6499;66.348;14.134;2023-01-29T03:02:34;0.30;;;0.30;;
12861;SDS011;6499;66.348;14.134;2023-01-29T03:05:03;1.90;;;0.50;;
12861;SDS011;6499;66.348;14.134;2023-01-29T03:07:33;1.30;;;0.30;;
12861;SDS011;6499;66.348;14.134;2023-01-29T03:10:10;1.03;;;0.30;;
12861;SDS011;6499;66.348;14.134;2023-01-29T03:12:39;0.63;;;0.40;;
12861;SDS011;6499;66.348;14.134;2023-01-29T03:15:07;0.83;;;0.40;;
12861;SDS011;6499;66.348;14.134;2023-01-29T03:17:40;1.00;;;0.50;;
12861;SDS011;6499;66.348;14.134;2023-01-29T03:20:08;2.60;;;0.80;;
12861;SDS011;6499;66.348;14.134;2023-01-29T03:22:37;1.03;;;0.47;;
12861;SDS011;6499;66.348;14.134;2023-01-29T03:25:05;1.60;;;0.30;;
12861;SDS011;6499;66.348;14.134;2023-01-29T03:27:51;0.70;;;0.50;;
12861;SDS011;6499;66.348;14.134;2023-01-29T03:30:37;0.60;;;0.40;;
12861;SDS011;6499;66.348;14.134;2023-01-29T03:33:25;3.80;;;0.70;;
12861;SDS011;6499;66.348;14.134;2023-01-29T03:35:52;1.20;;;0.50;;
12861;SDS011;6499;66.348;14.134;2023-01-29T03:38:22;0.83;;;0.50;;
12861;SDS011;6499;66.348;14.134;2023-01-29T03:40:54;1.77;;;0.60;;
12861;SDS011;6499;66.348;14.134;2023-01-29T03:43:24;1.80;;;0.60;;
12861;SDS011;6499;66.348;14.134;2023-01-29T03:46:00;1.70;;;0.43;;
12861;SDS011;6499;66.348;14.134;2023-01-29T03:48:31;4.20;;;0.63;;
12861;SDS011;6499;66.348;14.134;2023-01-29T03:51:00;1.87;;;0.50;;
12861;SDS011;6499;66.348;14.134;2023-01-29T03:53:34;2.60;;;0.90;;
12861;SDS011;6499;66.348;14.134;2023-01-29T03:56:06;4.33;;;1.00;;
12861;SDS011;6499;66.348;14.134;2023-01-29T03:58:34;1.63;;;0.70;;
12861;SDS011;6499;66.348;14.134;2023-01-29T04:01:02;2.23;;;0.80;;
12861;SDS011;6499;66.348;14.134;2023-01-29T04:03:32;5.07;;;1.37;;
12861;SDS011;6499;66.348;14.134;2023-01-29T04:06:01;3.13;;;1.10;;
12861;SDS011;6499;66.348;14.134;2023-01-29T04:08:34;3.43;;;1.13;;
12861;SDS011;6499;66.348;14.134;2023-01-29T04:11:03;6.90;;;1.23;;
12861;SDS011;6499;66.348;14.134;2023-01-29T04:13:32;4.97;;;1.17;;
12861;SDS011;6499;66.348;14.134;2023-01-29T04:16:00;6.03;;;1.13;;
12861;SDS011;6499;66.348;14.134;2023-01-29T04:18:27;3.07;;;0.80;;
12861;SDS011;6499;66.348;14.134;2023-01-29T04:20:55;2.10;;;0.90;;
12861;SDS011;6499;66.348;14.134;2023-01-29T04:23:22;4.93;;;1.30;;
12861;SDS011;6499;66.348;14.134;2023-01-29T04:25:52;4.80;;;0.87;;
12861;SDS011;6499;66.348;14.134;2023-01-29T04:28:20;2.33;;;1.00;;
12861;SDS011;6499;66.348;14.134;2023-01-29T04:30:50;4.00;;;1.10;;
12861;SDS011;6499;66.348;14.134;2023-01-29T04:33:21;2.97;;;0.70;;
12861;SDS011;6499;66.348;14.134;2023-01-29T04:35:57;3.33;;;0.80;;
12861;SDS011;6499;66.348;14.134;2023-01-29T04:38:33;3.73;;;1.10;;
12861;SDS011;6499;66.348;14.134;2023-01-29T04:41:04;3.93;;;0.73;;
12861;SDS011;6499;66.348;14.134;2023-01-29T04:43:34;2.93;;;0.80;;
12861;SDS011;6499;66.348;14.134;2023-01-29T04:46:07;2.00;;;0.50;;
12861;SDS011;6499;66.348;14.134;2023-01-29T04:48:37;1.17;;;0.67;;
12861;SDS011;6499;66.348;14.134;2023-01-29T04:51:11;0.70;;;0.40;;
12861;SDS011;6499;66.348;14.134;2023-01-29T04:53:40;1.20;;;0.40;;
12861;SDS011;6499;66.348;14.134;2023-01-29T04:56:10;1.83;;;0.47;;
12861;SDS011;6499;66.348;14.134;2023-01-29T04:58:40;1.43;;;0.50;;
12861;SDS011;6499;66.348;14.134;2023-01-29T05:01:09;1.67;;;0.53;;
12861;SDS011;6499;66.348;14.134;2023-01-29T05:03:38;0.43;;;0.40;;
12861;SDS011;6499;66.348;14.134;2023-01-29T05:06:06;0.40;;;0.40;;
12861;SDS011;6499;66.348;14.134;2023-01-29T05:08:34;1.53;;;0.40;;
12861;SDS011;6499;66.348;14.134;2023-01-29T05:11:02;1.63;;;0.33;;
12861;SDS011;6499;66.348;14.134;2023-01-29T05:13:29;0.63;;;0.47;;
12861;SDS011;6499;66.348;14.134;2023-01-29T05:15:58;1.20;;;0.60;;
12861;SDS011;6499;66.348;14.134;2023-01-29T05:18:25;2.03;;;0.90;;
12861;SDS011;6499;66.348;14.134;2023-01-29T05:20:52;0.40;;;0.40;;
12861;SDS011;6499;66.348;14.134;2023-01-29T05:23:21;0.30;;;0.30;;
12861;SDS011;6499;66.348;14.134;2023-01-29T05:25:49;0.20;;;0.20;;
12861;SDS011;6499;66.348;14.134;2023-01-29T05:28:17;0.30;;;0.30;;
12861;SDS011;6499;66.348;14.134;2023-01-29T05:30:43;0.30;;;0.30;;
12861;SDS011;6499;66.348;14.134;2023-01-29T05:33:11;0.20;;;0.20;;
12861;SDS011;6499;66.348;14.134;2023-01-29T05:35:38;0.33;;;0.33;;
12861;SDS011;6499;66.348;14.134;2023-01-29T05:38:04;0.30;;;0.20;;
12861;SDS011;6499;66.348;14.134;2023-01-29T05:40:31;0.30;;;0.30;;
12861;SDS011;6499;66.348;14.134;2023-01-29T05:42:59;0.43;;;0.20;;
12861;SDS011;6499;66.348;14.134;2023-01-29T05:45:25;0.37;;;0.30;;
12861;SDS011;6499;66.348;14.134;2023-01-29T05:47:54;0.83;;;0.40;;
12861;SDS011;6499;66.348;14.134;2023-01-29T05:50:20;0.90;;;0.50;;
12861;SDS011;6499;66.348;14.134;2023-01-29T05:52:47;3.43;;;0.53;;
12861;SDS011;6499;66.348;14.134;2023-01-29T05:55:14;3.40;;;0.60;;
12861;SDS011;6499;66.348;14.134;2023-01-29T05:57:40;2.10;;;0.43;;
12861;SDS011;6499;66.348;14.134;2023-01-29T06:00:09;1.73;;;0.50;;
12861;SDS011;6499;66.348;14.134;2023-01-29T06:02:37;0.93;;;0.50;;
12861;SDS011;6499;66.348;14.134;2023-01-29T06:05:03;1.93;;;0.60;;
12861;SDS011;6499;66.348;14.134;2023-01-29T06:07:30;0.93;;;0.50;;
12861;SDS011;6499;66.348;14.134;2023-01-29T06:09:56;1.67;;;0.70;;
12861;SDS011;6499;66.348;14.134;2023-01-29T06:12:23;1.73;;;0.63;;
12861;SDS011;6499;66.348;14.134;2023-01-29T06:14:49;3.00;;;0.70;;
12861;SDS011;6499;66.348;14.134;2023-01-29T06:17:17;1.03;;;0.50;;
12861;SDS011;6499;66.348;14.134;2023-01-29T06:19:43;2.73;;;0.70;;
12861;SDS011;6499;66.348;14.134;2023-01-29T06:22:10;1.47;;;0.60;;
12861;SDS011;6499;66.348;14.134;2023-01-29T06:24:36;4.00;;;1.00;;
12861;SDS011;6499;66.348;14.134;2023-01-29T06:27:03;2.73;;;0.90;;
12861;SDS011;6499;66.348;14.134;2023-01-29T06:29:29;3.40;;;0.90;;
12861;SDS011;6499;66.348;14.134;2023-01-29T06:31:56;3.57;;;0.77;;
12861;SDS011;6499;66.348;14.134;2023-01-29T06:34:24;4.90;;;1.00;;
12861;SDS011;6499;66.348;14.134;2023-01-29T06:36:50;3.17;;;1.17;;
12861;SDS011;6499;66.348;14.134;2023-01-29T06:39:17;3.17;;;0.73;;
12861;SDS011;6499;66.348;14.134;2023-01-29T06:41:43;2.90;;;0.77;;
12861;SDS011;6499;66.348;14.134;2023-01-29T06:44:10;3.90;;;0.93;;
12861;SDS011;6499;66.348;14.134;2023-01-29T06:46:37;1.77;;;0.57;;
12861;SDS011;6499;66.348;14.134;2023-01-29T06:49:03;1.47;;;0.57;;
12861;SDS011;6499;66.348;14.134;2023-01-29T06:51:31;3.47;;;1.10;;
12861;SDS011;6499;66.348;14.134;2023-01-29T06:53:58;4.87;;;1.20;;
12861;SDS011;6499;66.348;14.134;2023-01-29T06:56:24;2.77;;;1.00;;
12861;SDS011;6499;66.348;14.134;2023-01-29T06:58:51;1.87;;;0.80;;
12861;SDS011;6499;66.348;14.134;2023-01-29T07:01:17;4.43;;;1.10;;
12861;SDS011;6499;66.348;14.134;2023-01-29T07:03:44;2.57;;;0.83;;
12861;SDS011;6499;66.348;14.134;2023-01-29T07:06:14;1.40;;;0.70;;
12861;SDS011;6499;66.348;14.134;2023-01-29T07:08:41;0.67;;;0.27;;
12861;SDS011;6499;66.348;14.134;2023-01-29T07:11:08;1.10;;;0.47;;
12861;SDS011;6499;66.348;14.134;2023-01-29T07:13:34;0.57;;;0.40;;
12861;SDS011;6499;66.348;14.134;2023-01-29T07:16:01;0.73;;;0.47;;
12861;SDS011;6499;66.348;14.134;2023-01-29T07:18:28;0.80;;;0.50;;
12861;SDS011;6499;66.348;14.134;2023-01-29T07:20:55;0.80;;;0.50;;
12861;SDS011;6499;66.348;14.134;2023-01-29T07:23:22;0.40;;;0.40;;
12861;SDS011;6499;66.348;14.134;2023-01-29T07:25:50;1.53;;;0.40;;
12861;SDS011;6499;66.348;14.134;2023-01-29T07:28:16;0.40;;;0.37;;
12861;SDS011;6499;66.348;14.134;2023-01-29T07:30:43;0.50;;;0.50;;
12861;SDS011;6499;66.348;14.134;2023-01-29T07:33:10;1.47;;;0.63;;
12861;SDS011;6499;66.348;14.134;2023-01-29T07:35:37;1.33;;;0.50;;
12861;SDS011;6499;66.348;14.134;2023-01-29T07:38:03;0.93;;;0.50;;
12861;SDS011;6499;66.348;14.134;2023-01-29T07:40:30;1.77;;;0.60;;
12861;SDS011;6499;66.348;14.134;2023-01-29T07:42:58;1.13;;;0.40;;
12861;SDS011;6499;66.348;14.134;2023-01-29T07:45:25;0.50;;;0.40;;
12861;SDS011;6499;66.348;14.134;2023-01-29T07:47:52;1.10;;;0.50;;
12861;SDS011;6499;66.348;14.134;2023-01-29T07:50:19;1.20;;;0.60;;
12861;SDS011;6499;66.348;14.134;2023-01-29T07:52:45;2.23;;;0.70;;
12861;SDS011;6499;66.348;14.134;2023-01-29T07:55:12;1.53;;;0.97;;
12861;SDS011;6499;66.348;14.134;2023-01-29T07:57:38;1.80;;;0.80;;
12861;SDS011;6499;66.348;14.134;2023-01-29T08:00:09;1.53;;;0.90;;
12861;SDS011;6499;66.348;14.134;2023-01-29T08:02:36;1.23;;;0.70;;
12861;SDS011;6499;66.348;14.134;2023-01-29T08:05:03;1.73;;;0.60;;
12861;SDS011;6499;66.348;14.134;2023-01-29T08:07:30;1.33;;;0.90;;
12861;SDS011;6499;66.348;14.134;2023-01-29T08:09:56;1.23;;;0.67;;
12861;SDS011;6499;66.348;14.134;2023-01-29T08:12:23;2.20;;;1.10;;
12861;SDS011;6499;66.348;14.134;2023-01-29T08:14:49;2.30;;;1.37;;
12861;SDS011;6499;66.348;14.134;2023-01-29T08:17:17;4.03;;;1.80;;
12861;SDS011;6499;66.348;14.134;2023-01-29T08:19:43;1.87;;;1.00;;
12861;SDS011;6499;66.348;14.134;2023-01-29T08:22:10;2.80;;;1.20;;
12861;SDS011;6499;66.348;14.134;2023-01-29T08:24:36;1.50;;;1.10;;
12861;SDS011;6499;66.348;14.134;2023-01-29T08:27:03;3.83;;;1.00;;
12861;SDS011;6499;66.348;14.134;2023-01-29T08:29:29;2.90;;;1.23;;
12861;SDS011;6499;66.348;14.134;2023-01-29T08:31:56;1.63;;;0.90;;
12861;SDS011;6499;66.348;14.134;2023-01-29T08:34:24;1.00;;;0.60;;
12861;SDS011;6499;66.348;14.134;2023-01-29T08:36:50;1.00;;;0.70;;
12861;SDS011;6499;66.348;14.134;2023-01-29T08:39:17;1.57;;;0.60;;
12861;SDS011;6499;66.348;14.134;2023-01-29T08:41:43;1.33;;;0.50;;
12861;SDS011;6499;66.348;14.134;2023-01-29T08:44:10;2.10;;;0.70;;
12861;SDS011;6499;66.348;14.134;2023-01-29T08:46:36;1.10;;;0.50;;
12861;SDS011;6499;66.348;14.134;2023-01-29T08:49:04;1.00;;;0.60;;
12861;SDS011;6499;66.348;14.134;2023-01-29T08:51:32;1.47;;;0.57;;
12861;SDS011;6499;66.348;14.134;2023-01-29T08:53:59;1.90;;;0.87;;
12861;SDS011;6499;66.348;14.134;2023-01-29T08:56:25;11.90;;;9.40;;
12861;SDS011;6499;66.348;14.134;2023-01-29T08:58:52;5.50;;;4.27;;
12861;SDS011;6499;66.348;14.134;2023-01-29T09:01:18;3.37;;;2.87;;
12861;SDS011;6499;66.348;14.134;2023-01-29T09:03:45;1.00;;;0.90;;
12861;SDS011;6499;66.348;14.134;2023-01-29T09:06:11;2.20;;;1.20;;
12861;SDS011;6499;66.348;14.134;2023-01-29T09:08:40;1.87;;;1.27;;
12861;SDS011;6499;66.348;14.134;2023-01-29T09:11:07;1.80;;;1.33;;
12861;SDS011;6499;66.348;14.134;2023-01-29T09:13:33;2.40;;;2.20;;
12861;SDS011;6499;66.348;14.134;2023-01-29T09:16:00;6.07;;;4.43;;
12861;SDS011;6499;66.348;14.134;2023-01-29T09:18:26;8.20;;;4.87;;
12861;SDS011;6499;66.348;14.134;2023-01-29T09:20:53;16.70;;;7.00;;
12861;SDS011;6499;66.348;14.134;2023-01-29T09:23:20;22.90;;;12.20;;
12861;SDS011;6499;66.348;14.134;2023-01-29T09:25:48;12.90;;;5.80;;
12861;SDS011;6499;66.348;14.134;2023-01-29T09:28:14;12.73;;;7.03;;
12861;SDS011;6499;66.348;14.134;2023-01-29T09:30:42;15.70;;;9.07;;
12861;SDS011;6499;66.348;14.134;2023-01-29T09:33:08;15.60;;;9.23;;
12861;SDS011;6499;66.348;14.134;2023-01-29T09:35:35;12.33;;;7.57;;
12861;SDS011;6499;66.348;14.134;2023-01-29T09:38:01;13.93;;;8.07;;
12861;SDS011;6499;66.348;14.134;2023-01-29T09:40:29;8.60;;;5.30;;
12861;SDS011;6499;66.348;14.134;2023-01-29T09:43:02;8.20;;;4.67;;
12861;SDS011;6499;66.348;14.134;2023-01-29T09:45:29;7.67;;;4.27;;
12861;SDS011;6499;66.348;14.134;2023-01-29T09:47:56;6.83;;;4.23;;
12861;SDS011;6499;66.348;14.134;2023-01-29T09:50:25;5.93;;;3.90;;
12861;SDS011;6499;66.348;14.134;2023-01-29T09:52:54;7.37;;;4.83;;
12861;SDS011;6499;66.348;14.134;2023-01-29T09:55:22;7.97;;;5.20;;
12861;SDS011;6499;66.348;14.134;2023-01-29T09:57:51;10.13;;;6.37;;
12861;SDS011;6499;66.348;14.134;2023-01-29T10:00:21;9.43;;;6.60;;
12861;SDS011;6499;66.348;14.134;2023-01-29T10:02:55;9.17;;;5.23;;
12861;SDS011;6499;66.348;14.134;2023-01-29T10:05:33;15.90;;;12.33;;
12861;SDS011;6499;66.348;14.134;2023-01-29T10:08:19;22.60;;;19.33;;
12861;SDS011;6499;66.348;14.134;2023-01-29T10:10:52;8.77;;;7.30;;
12861;SDS011;6499;66.348;14.134;2023-01-29T10:13:26;5.73;;;4.20;;
12861;SDS011;6499;66.348;14.134;2023-01-29T10:16:00;4.63;;;3.03;;
12861;SDS011;6499;66.348;14.134;2023-01-29T10:21:24;3.03;;;1.60;;
12861;SDS011;6499;66.348;14.134;2023-01-29T10:23:55;2.37;;;1.73;;
12861;SDS011;6499;66.348;14.134;2023-01-29T10:26:23;2.17;;;1.50;;
12861;SDS011;6499;66.348;14.134;2023-01-29T10:28:51;4.70;;;2.77;;
12861;SDS011;6499;66.348;14.134;2023-01-29T10:31:22;2.30;;;1.80;;
12861;SDS011;6499;66.348;14.134;2023-01-29T10:33:53;1.63;;;1.47;;
12861;SDS011;6499;66.348;14.134;2023-01-29T10:36:20;1.63;;;1.20;;
12861;SDS011;6499;66.348;14.134;2023-01-29T10:38:48;1.63;;;1.10;;
12861;SDS011;6499;66.348;14.134;2023-01-29T10:41:21;2.50;;;2.30;;
12861;SDS011;6499;66.348;14.134;2023-01-29T10:43:51;3.97;;;3.13;;
12861;SDS011;6499;66.348;14.134;2023-01-29T10:46:32;3.97;;;3.67;;
12861;SDS011;6499;66.348;14.134;2023-01-29T10:49:03;5.07;;;4.57;;
12861;SDS011;6499;66.348;14.134;2023-01-29T10:51:43;3.30;;;3.00;;
12861;SDS011;6499;66.348;14.134;2023-01-29T10:54:15;2.30;;;2.07;;
12861;SDS011;6499;66.348;14.134;2023-01-29T10:56:51;2.00;;;1.40;;
12861;SDS011;6499;66.348;14.134;2023-01-29T10:59:25;2.53;;;1.70;;
12861;SDS011;6499;66.348;14.134;2023-01-29T11:01:57;1.37;;;1.03;;
12861;SDS011;6499;66.348;14.134;2023-01-29T11:04:24;2.43;;;1.63;;
12861;SDS011;6499;66.348;14.134;2023-01-29T11:06:51;1.40;;;1.13;;
12861;SDS011;6499;66.348;14.134;2023-01-29T11:09:21;1.40;;;1.13;;
12861;SDS011;6499;66.348;14.134;2023-01-29T11:11:49;1.73;;;1.30;;
12861;SDS011;6499;66.348;14.134;2023-01-29T11:14:18;2.23;;;1.67;;
12861;SDS011;6499;66.348;14.134;2023-01-29T11:16:46;1.80;;;1.27;;
12861;SDS011;6499;66.348;14.134;2023-01-29T11:19:15;1.87;;;1.50;;
12861;SDS011;6499;66.348;14.134;2023-01-29T11:21:51;1.53;;;1.13;;
12861;SDS011;6499;66.348;14.134;2023-01-29T11:24:18;1.00;;;0.90;;
12861;SDS011;6499;66.348;14.134;2023-01-29T11:26:47;1.77;;;1.67;;
12861;SDS011;6499;66.348;14.134;2023-01-29T11:29:28;3.73;;;1.73;;
12861;SDS011;6499;66.348;14.134;2023-01-29T11:31:56;5.97;;;4.87;;
12861;SDS011;6499;66.348;14.134;2023-01-29T11:34:25;1.93;;;1.50;;
12861;SDS011;6499;66.348;14.134;2023-01-29T11:36:55;1.47;;;1.10;;
12861;SDS011;6499;66.348;14.134;2023-01-29T11:39:22;2.17;;;0.93;;
12861;SDS011;6499;66.348;14.134;2023-01-29T11:41:52;1.13;;;1.07;;
12861;SDS011;6499;66.348;14.134;2023-01-29T11:44:19;1.27;;;0.80;;
12861;SDS011;6499;66.348;14.134;2023-01-29T11:46:46;1.73;;;1.10;;
12861;SDS011;6499;66.348;14.134;2023-01-29T11:49:19;0.97;;;0.80;;
12861;SDS011;6499;66.348;14.134;2023-01-29T11:51:50;1.80;;;0.73;;
12861;SDS011;6499;66.348;14.134;2023-01-29T11:54:17;0.60;;;0.60;;
12861;SDS011;6499;66.348;14.134;2023-01-29T11:56:44;0.97;;;0.70;;
12861;SDS011;6499;66.348;14.134;2023-01-29T11:59:19;0.73;;;0.70;;
12861;SDS011;6499;66.348;14.134;2023-01-29T12:01:49;1.10;;;0.70;;
12861;SDS011;6499;66.348;14.134;2023-01-29T12:04:17;0.87;;;0.50;;
12861;SDS011;6499;66.348;14.134;2023-01-29T12:06:44;0.80;;;0.70;;
12861;SDS011;6499;66.348;14.134;2023-01-29T12:09:16;0.87;;;0.60;;
12861;SDS011;6499;66.348;14.134;2023-01-29T12:11:43;0.60;;;0.57;;
12861;SDS011;6499;66.348;14.134;2023-01-29T12:14:21;0.97;;;0.50;;
12861;SDS011;6499;66.348;14.134;2023-01-29T12:16:53;1.03;;;0.60;;
12861;SDS011;6499;66.348;14.134;2023-01-29T12:19:23;0.60;;;0.57;;
12861;SDS011;6499;66.348;14.134;2023-01-29T12:21:51;0.67;;;0.40;;
12861;SDS011;6499;66.348;14.134;2023-01-29T12:24:27;0.30;;;0.30;;
12861;SDS011;6499;66.348;14.134;2023-01-29T12:26:59;0.80;;;0.80;;
12861;SDS011;6499;66.348;14.134;2023-01-29T12:29:30;1.13;;;0.70;;
12861;SDS011;6499;66.348;14.134;2023-01-29T12:32:00;0.70;;;0.63;;
12861;SDS011;6499;66.348;14.134;2023-01-29T12:34:33;0.73;;;0.50;;
12861;SDS011;6499;66.348;14.134;2023-01-29T12:37:04;1.13;;;0.50;;
12861;SDS011;6499;66.348;14.134;2023-01-29T12:39:33;0.60;;;0.47;;
12861;SDS011;6499;66.348;14.134;2023-01-29T12:42:02;0.73;;;0.60;;
12861;SDS011;6499;66.348;14.134;2023-01-29T12:44:30;0.53;;;0.50;;
12861;SDS011;6499;66.348;14.134;2023-01-29T12:46:59;0.50;;;0.30;;
12861;SDS011;6499;66.348;14.134;2023-01-29T12:49:28;0.47;;;0.40;;
12861;SDS011;6499;66.348;14.134;2023-01-29T12:51:56;0.40;;;0.30;;
12861;SDS011;6499;66.348;14.134;2023-01-29T12:54:30;0.30;;;0.30;;
12861;SDS011;6499;66.348;14.134;2023-01-29T12:56:59;0.40;;;0.40;;
12861;SDS011;6499;66.348;14.134;2023-01-29T12:59:27;0.40;;;0.40;;
12861;SDS011;6499;66.348;14.134;2023-01-29T13:01:57;0.67;;;0.40;;
12861;SDS011;6499;66.348;14.134;2023-01-29T13:04:29;0.27;;;0.27;;
12861;SDS011;6499;66.348;14.134;2023-01-29T13:06:57;0.37;;;0.37;;
12861;SDS011;6499;66.348;14.134;2023-01-29T13:09:27;0.60;;;0.60;;
12861;SDS011;6499;66.348;14.134;2023-01-29T13:11:55;0.50;;;0.50;;
12861;SDS011;6499;66.348;14.134;2023-01-29T13:14:25;0.47;;;0.40;;
12861;SDS011;6499;66.348;14.134;2023-01-29T13:16:55;0.80;;;0.40;;
12861;SDS011;6499;66.348;14.134;2023-01-29T13:19:27;0.67;;;0.67;;
12861;SDS011;6499;66.348;14.134;2023-01-29T13:21:55;0.50;;;0.50;;
12861;SDS011;6499;66.348;14.134;2023-01-29T13:24:22;0.50;;;0.50;;
12861;SDS011;6499;66.348;14.134;2023-01-29T13:26:50;0.40;;;0.40;;
12861;SDS011;6499;66.348;14.134;2023-01-29T13:29:19;0.50;;;0.50;;
12861;SDS011;6499;66.348;14.134;2023-01-29T13:31:48;0.40;;;0.40;;
12861;SDS011;6499;66.348;14.134;2023-01-29T13:34:15;0.50;;;0.50;;
12861;SDS011;6499;66.348;14.134;2023-01-29T13:36:45;0.50;;;0.50;;
12861;SDS011;6499;66.348;14.134;2023-01-29T13:39:18;0.40;;;0.40;;
12861;SDS011;6499;66.348;14.134;2023-01-29T13:41:45;0.80;;;0.63;;
12861;SDS011;6499;66.348;14.134;2023-01-29T13:44:17;1.90;;;1.37;;
12861;SDS011;6499;66.348;14.134;2023-01-29T13:46:48;1.00;;;0.90;;
12861;SDS011;6499;66.348;14.134;2023-01-29T13:49:22;0.60;;;0.50;;
12861;SDS011;6499;66.348;14.134;2023-01-29T13:51:50;1.80;;;1.30;;
12861;SDS011;6499;66.348;14.134;2023-01-29T13:54:16;0.73;;;0.40;;
12861;SDS011;6499;66.348;14.134;2023-01-29T13:56:55;1.40;;;0.90;;
12861;SDS011;6499;66.348;14.134;2023-01-29T13:59:23;0.40;;;0.40;;
12861;SDS011;6499;66.348;14.134;2023-01-29T14:02:01;0.63;;;0.50;;
12861;SDS011;6499;66.348;14.134;2023-01-29T14:04:30;0.30;;;0.30;;
12861;SDS011;6499;66.348;14.134;2023-01-29T14:06:58;0.83;;;0.50;;
12861;SDS011;6499;66.348;14.134;2023-01-29T14:09:31;0.20;;;0.20;;
12861;SDS011;6499;66.348;14.134;2023-01-29T14:11:58;0.37;;;0.30;;
12861;SDS011;6499;66.348;14.134;2023-01-29T14:17:26;0.30;;;0.30;;
12861;SDS011;6499;66.348;14.134;2023-01-29T14:19:56;0.20;;;0.20;;
12861;SDS011;6499;66.348;14.134;2023-01-29T14:22:26;0.40;;;0.20;;
12861;SDS011;6499;66.348;14.134;2023-01-29T14:24:54;0.57;;;0.50;;
12861;SDS011;6499;66.348;14.134;2023-01-29T14:27:22;5.30;;;3.67;;
12861;SDS011;6499;66.348;14.134;2023-01-29T14:29:50;0.60;;;0.40;;
12861;SDS011;6499;66.348;14.134;2023-01-29T14:32:23;0.20;;;0.20;;
12861;SDS011;6499;66.348;14.134;2023-01-29T14:34:59;0.40;;;0.40;;
12861;SDS011;6499;66.348;14.134;2023-01-29T14:43:27;2.97;;;2.10;;
12861;SDS011;6499;66.348;14.134;2023-01-29T14:46:41;2.23;;;1.33;;
12861;SDS011;6499;66.348;14.134;2023-01-29T14:49:07;0.90;;;0.70;;
12861;SDS011;6499;66.348;14.134;2023-01-29T14:51:45;1.10;;;0.70;;
12861;SDS011;6499;66.348;14.134;2023-01-29T14:54:28;0.30;;;0.30;;
12861;SDS011;6499;66.348;14.134;2023-01-29T14:56:58;0.30;;;0.30;;
12861;SDS011;6499;66.348;14.134;2023-01-29T14:59:28;0.60;;;0.30;;
12861;SDS011;6499;66.348;14.134;2023-01-29T15:01:57;0.67;;;0.40;;
12861;SDS011;6499;66.348;14.134;2023-01-29T15:04:33;0.30;;;0.30;;
12861;SDS011;6499;66.348;14.134;2023-01-29T15:10:02;0.33;;;0.30;;
12861;SDS011;6499;66.348;14.134;2023-01-29T15:12:32;0.50;;;0.37;;
12861;SDS011;6499;66.348;14.134;2023-01-29T15:15:02;0.30;;;0.30;;
12861;SDS011;6499;66.348;14.134;2023-01-29T15:17:36;0.60;;;0.50;;
12861;SDS011;6499;66.348;14.134;2023-01-29T15:22:47;0.30;;;0.30;;